createdAt,value
2023-12-24T00:01:02.194Z,2.70
2023-12-24T00:09:45.960Z,2.30
2023-12-24T00:18:12.307Z,3.00
2023-12-24T00:26:36.871Z,2.60
2023-12-24T00:35:00.627Z,2.90
2023-12-24T00:43:25.704Z,3.40
2023-12-24T00:51:53.245Z,3.50
2023-12-24T01:00:19.159Z,3.10
2023-12-24T01:08:44.804Z,2.90
2023-12-24T01:17:10.061Z,2.50
2023-12-24T01:25:34.891Z,3.30
2023-12-24T01:34:00.122Z,2.60
2023-12-24T01:42:25.323Z,2.80
2023-12-24T01:50:52.272Z,2.70
2023-12-24T01:59:17.762Z,3.40
2023-12-24T02:07:44.553Z,2.30
2023-12-24T02:16:11.594Z,3.00
2023-12-24T02:24:36.917Z,3.80
2023-12-24T02:33:08.036Z,2.40
2023-12-24T02:41:34.197Z,2.80
2023-12-24T02:49:59.325Z,2.00
2023-12-24T02:58:24.765Z,2.00
2023-12-24T03:06:51.905Z,2.50
2023-12-24T03:15:19.704Z,2.30
2023-12-24T03:23:44.219Z,2.10
2023-12-24T03:32:10.527Z,2.30
2023-12-24T03:40:37.949Z,2.20
2023-12-24T03:49:06.209Z,2.00
2023-12-24T03:57:31.751Z,2.10
2023-12-24T04:05:55.756Z,2.50
2023-12-24T04:14:21.308Z,1.90
2023-12-24T04:22:45.844Z,1.70
2023-12-24T04:31:11.543Z,1.70
2023-12-24T04:39:38.722Z,2.20
2023-12-24T04:48:04.984Z,2.00
2023-12-24T04:56:33.370Z,1.60
2023-12-24T05:05:01.061Z,2.00
2023-12-24T05:13:26.020Z,3.10
2023-12-24T05:21:51.753Z,3.20
2023-12-24T05:30:17.671Z,2.20
2023-12-24T05:38:48.654Z,3.10
2023-12-24T05:47:13.691Z,2.40
2023-12-24T05:55:38.805Z,2.50
2023-12-24T06:04:04.965Z,2.90
2023-12-24T06:12:31.942Z,3.30
2023-12-24T06:20:56.981Z,2.60
2023-12-24T06:29:22.082Z,3.60
2023-12-24T06:37:47.601Z,5.20
2023-12-24T06:46:15.377Z,4.10
2023-12-24T06:54:39.630Z,4.00
2023-12-24T07:03:04.645Z,6.10
2023-12-24T07:11:30.407Z,6.70
2023-12-24T07:19:55.982Z,6.20
2023-12-24T07:28:21.310Z,5.50
2023-12-24T07:36:45.727Z,4.60
2023-12-24T07:45:13.545Z,3.60
2023-12-24T07:53:39.174Z,3.00
2023-12-24T08:02:06.707Z,4.00
2023-12-24T08:10:32.847Z,3.50
2023-12-24T08:18:57.512Z,3.60
2023-12-24T08:27:24.436Z,2.80
2023-12-24T08:35:48.894Z,3.90
2023-12-24T08:44:14.158Z,5.70
2023-12-24T08:52:41.407Z,3.90
2023-12-24T09:01:06.662Z,4.30
2023-12-24T09:09:30.959Z,4.50
2023-12-24T09:17:57.202Z,7.20
2023-12-24T09:26:21.617Z,6.90
2023-12-24T09:34:46.769Z,7.90
2023-12-24T09:43:16.266Z,9.00
2023-12-24T09:51:43.436Z,20.00
2023-12-24T10:00:11.448Z,71.80
2023-12-24T10:08:44.060Z,145.80
2023-12-24T10:17:08.824Z,359.70
2023-12-24T10:25:37.637Z,75.10
2023-12-24T10:34:03.862Z,97.70
2023-12-24T10:42:31.215Z,48.80
2023-12-24T10:50:57.195Z,103.10
2023-12-24T11:00:16.228Z,67.50
2023-12-24T11:08:39.604Z,25.60
2023-12-24T11:17:07.377Z,12.80
2023-12-24T11:25:51.855Z,15.10
2023-12-24T11:34:33.347Z,12.90
2023-12-24T11:43:02.862Z,5.50
2023-12-24T11:51:30.815Z,7.10
2023-12-24T11:59:56.253Z,4.90
2023-12-24T12:08:21.220Z,4.80
2023-12-24T12:16:46.335Z,4.70
2023-12-24T12:25:12.195Z,3.20
2023-12-24T12:33:39.665Z,3.30
2023-12-24T12:42:05.189Z,3.30
2023-12-24T12:50:33.845Z,56.30
2023-12-24T12:58:58.834Z,5.30
2023-12-24T13:07:30.911Z,3.80
2023-12-24T13:16:09.649Z,109.00
2023-12-24T13:24:37.268Z,56.90
2023-12-24T13:33:03.266Z,179.00
2023-12-24T13:41:27.586Z,68.90
2023-12-24T13:49:52.057Z,53.80
2023-12-24T13:58:16.935Z,12.00
2023-12-24T14:06:42.670Z,20.30
2023-12-24T14:15:27.288Z,4.90
2023-12-24T14:23:54.178Z,6.60
2023-12-24T14:32:17.795Z,3.20
2023-12-24T14:40:43.254Z,4.50
2023-12-24T14:49:09.359Z,4.60
2023-12-24T14:57:34.890Z,3.60
2023-12-24T15:06:01.514Z,12.00
2023-12-24T15:14:26.882Z,16.80
2023-12-24T15:22:52.381Z,8.00
2023-12-24T15:31:18.385Z,29.10
2023-12-24T15:39:45.978Z,7.50
2023-12-24T15:48:12.265Z,7.00
2023-12-24T15:56:37.574Z,6.20
2023-12-24T16:05:01.918Z,5.90
2023-12-24T16:13:26.630Z,6.80
2023-12-24T16:22:00.314Z,5.40
2023-12-24T16:30:27.583Z,4.70
2023-12-24T16:38:55.833Z,52.40
2023-12-24T16:47:23.877Z,111.30
2023-12-24T16:55:48.055Z,418.00
2023-12-24T17:04:15.688Z,190.30
2023-12-24T17:12:55.549Z,264.90
2023-12-24T17:21:28.127Z,268.80
2023-12-24T17:29:55.714Z,237.30
2023-12-24T17:38:27.879Z,50.20
2023-12-24T17:46:55.407Z,18.90
2023-12-24T17:55:29.404Z,89.90
2023-12-24T18:04:01.553Z,79.50
2023-12-24T18:12:34.303Z,49.60
2023-12-24T18:21:02.411Z,17.70
2023-12-24T18:29:32.996Z,19.40
2023-12-24T18:38:01.759Z,35.40
2023-12-24T18:46:31.539Z,26.20
2023-12-24T18:54:57.981Z,30.10
2023-12-24T19:03:22.266Z,11.80
2023-12-24T19:11:46.266Z,16.20
2023-12-24T19:20:11.327Z,10.30
2023-12-24T19:28:35.983Z,13.70
2023-12-24T19:37:02.216Z,12.90
2023-12-24T19:45:27.769Z,12.20
2023-12-24T19:53:52.773Z,10.10
2023-12-24T20:02:19.860Z,9.00
2023-12-24T20:10:43.828Z,9.40
2023-12-24T20:19:08.558Z,10.20
2023-12-24T20:27:33.366Z,8.80
2023-12-24T20:35:57.392Z,8.20
2023-12-24T20:44:22.726Z,8.10
2023-12-24T20:52:46.377Z,9.40
2023-12-24T21:01:20.212Z,5.00
2023-12-24T21:09:45.273Z,2.80
2023-12-24T21:18:10.195Z,2.80
2023-12-24T21:26:34.688Z,2.70
2023-12-24T21:35:00.739Z,2.50
2023-12-24T21:43:25.580Z,3.30
2023-12-24T21:51:54.547Z,2.70
2023-12-24T22:00:21.190Z,3.00
2023-12-24T22:08:46.527Z,3.00
2023-12-24T22:17:10.431Z,3.00
2023-12-24T22:25:35.928Z,3.30
2023-12-24T22:34:01.348Z,2.70
2023-12-24T22:42:24.991Z,2.50
2023-12-24T22:50:49.310Z,2.50
2023-12-24T22:59:15.380Z,3.10
2023-12-24T23:07:41.108Z,2.20
2023-12-24T23:16:05.065Z,1.80
2023-12-24T23:24:29.601Z,1.80
2023-12-24T23:32:55.274Z,1.90
2023-12-24T23:41:19.908Z,1.80
2023-12-24T23:49:43.448Z,1.70
2023-12-24T23:58:08.421Z,1.40
